This is the latest recevied weather packets stored in our database for station/object HK4CL-10. If no packets are shown the sender has not sent any weather packets the latest 10 day(s).
| Time | Temp. | Humidity | Pressure | Rain* | Wind** | Luminosity | Snow |
|---|---|---|---|---|---|---|---|
| 1787639560 | 17.78° C | 89% | 820 hPa | - | - | - | - |
| 1787638660 | 16.67° C | 100% | 820.2 hPa | - | - | - | - |
| 1787637757 | 16.11° C | 100% | 820.1 hPa | - | - | - | - |
| 1787636857 | 16.67° C | 100% | 819.4 hPa | - | - | - | - |
| 1787635957 | 16.67° C | 95% | 819.7 hPa | - | - | - | - |
| 1787635056 | 17.22° C | 96% | 820.1 hPa | - | - | - | - |
| 1787634156 | 17.22° C | 90% | 820.6 hPa | - | - | - | - |
| 1787633256 | 17.22° C | 92% | 820.8 hPa | - | - | - | - |
| 1787632417 | 17.22° C | 85% | 821 hPa | - | - | - | - |
| 1787632356 | 17.22° C | 85% | 821 hPa | - | - | - | - |
| 1787631456 | 17.78° C | 87% | 821.2 hPa | - | - | - | - |
| 1787630555 | 17.78° C | 86% | 821.3 hPa | - | - | - | - |
| 1787629655 | 17.78° C | 86% | 821.4 hPa | - | - | - | - |
| 1787628755 | 17.78° C | 82% | 821.4 hPa | - | - | - | - |
| 1787627855 | 18.33° C | 80% | 821.4 hPa | - | - | - | - |
| 1787626955 | 18.33° C | 81% | 821.4 hPa | - | - | - | - |
| 1787626054 | 18.33° C | 78% | 821.3 hPa | - | - | - | - |
| 1787625154 | 18.33° C | 78% | 821 hPa | - | - | - | - |
| 1787624254 | 18.33° C | 74% | 820.7 hPa | - | - | - | - |
| 1787623359 | 18.89° C | 75% | 820.4 hPa | - | - | - | - |
| 1787622459 | 18.89° C | 72% | 820.2 hPa | - | - | - | - |
| 1787621559 | 19.44° C | 69% | 820.1 hPa | - | - | - | - |
| 1787620659 | 20° C | 63% | 820 hPa | - | - | - | - |
| 1787619758 | 21.11° C | 56% | 819.9 hPa | - | - | - | - |
| 1787618858 | 20.56° C | 62% | 819.8 hPa | - | - | - | - |
* Rain since midnight (hover to see other rain measurements)
** Current wind speed in m/s (hover to see current wind gust speed)